TimeEST,TemperatureF,Dew PointF,Humidity,Sea Level PressureIn,VisibilityMPH,Wind Direction,Wind SpeedMPH,Gust SpeedMPH,PrecipitationIn,Events,Conditions,WindDirDegrees,DateUTC
12:53 AM,55.0,53.1,93,30.10,10.0,WSW,3.5,-,N/A,,Clear,240,2013-03-06 05:53:00
1:53 AM,53.1,52.0,96,30.09,9.0,WNW,4.6,-,N/A,,Clear,300,2013-03-06 06:53:00
2:53 AM,54.0,53.1,97,30.06,10.0,Calm,Calm,-,N/A,,Clear,0,2013-03-06 07:53:00
3:53 AM,55.9,52.0,87,30.05,10.0,SW,6.9,-,N/A,,Clear,230,2013-03-06 08:53:00
4:53 AM,54.0,51.1,90,30.06,10.0,WSW,3.5,-,N/A,,Clear,250,2013-03-06 09:53:00
5:53 AM,51.1,48.9,92,30.07,10.0,WSW,4.6,-,N/A,,Clear,240,2013-03-06 10:53:00
6:53 AM,52.0,51.1,97,30.09,10.0,WSW,4.6,-,N/A,,Clear,250,2013-03-06 11:53:00
7:53 AM,61.0,57.0,87,30.10,10.0,SW,5.8,-,N/A,,Clear,230,2013-03-06 12:53:00
8:53 AM,69.1,59.0,70,30.10,10.0,WSW,9.2,-,N/A,,Clear,240,2013-03-06 13:53:00
9:53 AM,73.0,55.9,55,30.10,10.0,WSW,13.8,-,N/A,,Clear,240,2013-03-06 14:53:00
10:53 AM,77.0,59.0,54,30.10,10.0,West,17.3,24.2,0.01,,Partly Cloudy,260,2013-03-06 15:53:00
11:53 AM,80.1,59.0,48,30.08,10.0,West,19.6,26.5,N/A,,Partly Cloudy,260,2013-03-06 16:53:00
12:53 PM,79.0,60.1,52,30.05,10.0,West,26.5,32.2,N/A,,Scattered Clouds,280,2013-03-06 17:53:00
1:53 PM,78.1,61.0,56,30.03,10.0,West,23.0,29.9,N/A,,Overcast,280,2013-03-06 18:53:00
2:53 PM,79.0,62.1,56,30.01,10.0,West,18.4,23.0,0.00,,Mostly Cloudy,260,2013-03-06 19:53:00
3:53 PM,78.1,59.0,52,29.99,10.0,WNW,19.6,-,N/A,,Mostly Cloudy,290,2013-03-06 20:53:00
4:53 PM,78.1,52.0,40,29.99,10.0,West,21.9,28.8,N/A,,Clear,280,2013-03-06 21:53:00
5:53 PM,72.0,52.0,49,30.01,10.0,West,17.3,-,N/A,,Clear,270,2013-03-06 22:53:00
6:53 PM,63.0,50.0,63,30.05,10.0,West,12.7,-,N/A,,Clear,270,2013-03-06 23:53:00
7:53 PM,60.1,39.9,47,30.07,10.0,WNW,15.0,-,N/A,,Clear,290,2013-03-07 00:53:00
8:53 PM,54.0,39.9,59,30.09,10.0,WNW,10.4,-,N/A,,Clear,290,2013-03-07 01:53:00
9:53 PM,51.1,42.1,71,30.11,10.0,WNW,10.4,-,N/A,,Clear,300,2013-03-07 02:53:00
10:53 PM,53.1,42.1,66,30.12,10.0,NW,12.7,-,N/A,,Clear,310,2013-03-07 03:53:00
11:53 PM,52.0,42.1,69,30.12,10.0,NW,11.5,-,N/A,,Clear,320,2013-03-07 04:53:00